createdAt,value
2022-09-30T04:17:14.926Z,77.04
2022-09-30T04:19:41.349Z,78.24
2022-09-30T04:22:08.595Z,78.77
2022-09-30T04:24:35.589Z,78.68
2022-09-30T04:27:03.322Z,78.65
2022-09-30T04:29:29.754Z,77.29
2022-09-30T04:31:56.955Z,77.01
2022-09-30T04:34:23.571Z,77.25
2022-09-30T04:36:50.261Z,77.34
2022-09-30T04:39:16.663Z,77.45
2022-09-30T04:41:43.165Z,77.19
2022-09-30T04:44:09.693Z,77.14
2022-09-30T04:46:46.353Z,77.05
2022-09-30T04:49:12.847Z,76.69
2022-09-30T04:51:43.915Z,76.44
2022-09-30T04:54:10.358Z,77.40
2022-09-30T04:56:36.796Z,78.58
2022-09-30T04:59:03.302Z,79.66
2022-09-30T05:01:29.797Z,79.67
2022-09-30T05:03:56.216Z,80.60
2022-09-30T05:06:22.649Z,80.81
2022-09-30T05:08:49.287Z,80.10
2022-09-30T05:11:18.428Z,79.32
2022-09-30T05:13:45.945Z,79.06
2022-09-30T05:16:13.062Z,78.89
2022-09-30T05:18:42.575Z,78.72
2022-09-30T05:21:09.989Z,78.24
2022-09-30T05:23:36.705Z,79.04
2022-09-30T05:26:03.504Z,79.48
2022-09-30T05:28:31.304Z,79.47
2022-09-30T05:31:00.095Z,79.91
2022-09-30T05:33:29.503Z,80.66
2022-09-30T05:35:59.679Z,80.75
2022-09-30T05:38:29.696Z,80.84
2022-09-30T05:40:56.394Z,81.23
2022-09-30T05:43:22.890Z,80.74
2022-09-30T05:45:56.798Z,81.21
2022-09-30T05:48:25.438Z,80.70
2022-09-30T05:50:57.609Z,80.58
2022-09-30T05:53:24.686Z,80.28
2022-09-30T05:55:52.138Z,80.05
2022-09-30T05:58:20.502Z,79.80
2022-09-30T06:00:48.812Z,80.06
2022-09-30T06:03:16.587Z,80.18
2022-09-30T06:05:44.623Z,80.13
2022-09-30T06:08:12.036Z,80.59
2022-09-30T06:10:41.960Z,80.54
2022-09-30T06:13:09.220Z,80.87
2022-09-30T06:15:38.102Z,80.72
2022-09-30T06:18:04.669Z,79.91
2022-09-30T06:20:31.434Z,79.39
2022-09-30T06:23:01.158Z,80.12
2022-09-30T06:25:31.296Z,79.67
2022-09-30T06:27:58.595Z,79.50
2022-09-30T06:30:25.053Z,79.74
2022-09-30T06:32:52.052Z,80.12
2022-09-30T06:35:19.541Z,81.11
2022-09-30T06:37:46.506Z,81.33
2022-09-30T06:40:13.091Z,81.60
2022-09-30T06:42:39.762Z,82.08
2022-09-30T06:45:07.090Z,81.99
2022-09-30T06:47:33.560Z,81.59
2022-09-30T06:50:00.201Z,81.69
2022-09-30T06:52:27.126Z,81.14
2022-09-30T06:54:56.668Z,80.67
2022-09-30T06:57:27.889Z,80.97
2022-09-30T06:59:57.351Z,81.25
2022-09-30T07:02:23.853Z,81.69
2022-09-30T07:04:50.395Z,82.01
2022-09-30T07:07:17.055Z,81.83
2022-09-30T07:09:43.621Z,82.40
2022-09-30T07:12:10.235Z,82.39
2022-09-30T07:14:42.889Z,83.15
2022-09-30T07:17:09.290Z,83.06
2022-09-30T07:19:36.083Z,82.74
2022-09-30T07:22:23.029Z,83.01
2022-09-30T07:24:49.431Z,82.77
2022-09-30T07:27:15.965Z,83.00
2022-09-30T07:30:07.636Z,83.31
2022-09-30T07:32:30.487Z,83.30
2022-09-30T07:34:57.193Z,83.37
2022-09-30T07:37:25.088Z,83.26
2022-09-30T07:39:52.253Z,82.75
2022-09-30T07:42:23.223Z,82.45
2022-09-30T07:44:51.720Z,82.37
2022-09-30T07:47:19.530Z,82.35
2022-09-30T07:49:47.721Z,82.87
2022-09-30T07:52:14.934Z,82.79
2022-09-30T07:54:48.115Z,82.91
2022-09-30T07:57:16.924Z,82.85
2022-09-30T07:59:43.765Z,82.01
2022-09-30T08:02:18.545Z,81.61
2022-09-30T08:04:45.354Z,81.51
2022-09-30T08:07:13.405Z,81.63
2022-09-30T08:09:39.979Z,83.12
2022-09-30T08:12:06.657Z,82.30
2022-09-30T08:14:33.354Z,81.21
2022-09-30T08:17:00.448Z,81.17
2022-09-30T08:19:30.095Z,81.38
2022-09-30T08:21:57.819Z,80.97
2022-09-30T08:24:26.659Z,80.72
2022-09-30T08:26:54.259Z,80.10
2022-09-30T08:29:42.655Z,80.15
2022-09-30T08:32:07.562Z,79.31
2022-09-30T08:34:35.452Z,79.52
2022-09-30T08:37:07.847Z,79.68
2022-09-30T08:39:35.025Z,79.50
2022-09-30T08:42:49.121Z,79.20
2022-09-30T08:45:32.710Z,78.82
2022-09-30T08:48:06.679Z,78.77
2022-09-30T08:51:01.965Z,78.83
2022-09-30T08:53:33.092Z,78.79
2022-09-30T08:56:06.269Z,78.53
2022-09-30T08:58:41.031Z,78.04
2022-09-30T09:01:36.323Z,78.11
2022-09-30T09:04:05.487Z,77.67
2022-09-30T09:07:10.544Z,77.33
2022-09-30T09:09:48.107Z,76.94
2022-09-30T09:12:30.924Z,76.38
2022-09-30T09:15:05.778Z,75.93
2022-09-30T09:17:32.253Z,76.29
2022-09-30T09:20:13.266Z,75.19
2022-09-30T09:22:50.024Z,74.94
2022-09-30T09:25:20.281Z,74.55
2022-09-30T09:28:03.438Z,73.99
2022-09-30T09:30:36.045Z,73.72
2022-09-30T09:33:18.476Z,73.90
2022-09-30T09:36:08.088Z,73.34
2022-09-30T09:42:48.494Z,71.89
2022-09-30T09:48:20.016Z,70.32
2022-09-30T09:54:14.818Z,69.69
2022-09-30T09:56:41.281Z,70.11
2022-09-30T09:59:20.001Z,68.54
2022-09-30T10:01:52.839Z,68.25
2022-09-30T10:04:23.897Z,68.38
2022-09-30T10:07:02.087Z,67.43
2022-09-30T10:09:40.177Z,66.64
2022-09-30T10:12:07.668Z,65.53
2022-09-30T10:18:35.995Z,64.22
2022-09-30T10:21:25.138Z,64.16
2022-09-30T10:24:41.941Z,63.84
2022-09-30T10:27:58.766Z,63.20
2022-09-30T10:30:46.582Z,62.60
2022-09-30T10:33:21.581Z,62.44
2022-09-30T10:35:53.851Z,62.05
2022-09-30T10:38:21.933Z,61.02
2022-09-30T10:41:47.504Z,58.55
2022-09-30T10:44:18.548Z,58.68
2022-09-30T10:46:48.200Z,56.96
2022-09-30T10:49:40.029Z,57.18
2022-09-30T10:52:18.396Z,57.45
2022-09-30T10:54:51.041Z,57.76
2022-09-30T10:57:29.694Z,57.02
2022-09-30T11:00:00.864Z,55.51
2022-09-30T11:03:06.663Z,53.61
2022-09-30T11:06:29.817Z,53.47
2022-09-30T11:09:27.233Z,49.83
2022-09-30T11:12:02.675Z,48.10
2022-09-30T11:14:42.905Z,45.42
2022-09-30T11:17:50.335Z,43.69
2022-09-30T11:20:32.586Z,41.45
2022-09-30T11:23:30.907Z,39.37
2022-09-30T11:26:23.939Z,37.77
2022-09-30T11:29:32.030Z,34.85
2022-09-30T11:32:22.153Z,31.63
2022-09-30T11:34:51.873Z,31.30
2022-09-30T11:37:37.071Z,29.79
2022-09-30T11:40:12.514Z,30.27
2022-09-30T11:43:05.214Z,32.00
2022-09-30T11:45:33.922Z,27.86
2022-09-30T11:48:30.496Z,27.25
2022-09-30T11:51:09.494Z,27.19
2022-09-30T11:53:48.186Z,29.30
2022-09-30T11:56:35.835Z,28.42
2022-09-30T11:59:07.465Z,28.24
2022-09-30T12:01:39.640Z,27.94
2022-09-30T12:04:29.320Z,30.89
2022-09-30T12:07:18.653Z,29.18
2022-09-30T12:09:50.337Z,27.01
2022-09-30T12:12:18.893Z,28.88
2022-09-30T12:15:05.635Z,27.09
2022-09-30T12:17:37.442Z,27.63
2022-09-30T12:20:33.170Z,29.21
2022-09-30T12:23:35.727Z,31.08
2022-09-30T12:26:04.586Z,29.97
2022-09-30T12:29:17.897Z,27.77
2022-09-30T12:32:09.496Z,26.56
2022-09-30T12:35:04.371Z,26.19
2022-09-30T12:37:45.925Z,25.96
2022-09-30T12:40:17.160Z,29.55
2022-09-30T12:43:08.262Z,30.40
2022-09-30T12:45:39.658Z,27.67
2022-09-30T12:48:17.161Z,27.11
2022-09-30T12:50:53.189Z,26.92
2022-09-30T12:53:27.280Z,29.60
2022-09-30T12:55:55.207Z,30.76
2022-09-30T12:58:29.961Z,30.99
2022-09-30T13:01:14.947Z,29.67
2022-09-30T13:03:59.173Z,28.32
2022-09-30T13:06:44.940Z,26.80
2022-09-30T13:09:11.483Z,27.19
2022-09-30T13:11:46.418Z,28.01
2022-09-30T13:14:36.132Z,26.38
2022-09-30T13:17:08.664Z,25.87
2022-09-30T13:19:42.682Z,26.66
2022-09-30T13:22:18.480Z,27.26
2022-09-30T13:24:57.803Z,27.45
2022-09-30T13:27:37.067Z,28.54
2022-09-30T13:30:28.948Z,30.35
2022-09-30T13:32:59.519Z,29.82
2022-09-30T13:35:34.353Z,31.61
2022-09-30T13:38:32.838Z,31.02
2022-09-30T13:41:22.985Z,33.12
2022-09-30T13:44:19.563Z,31.15
2022-09-30T13:46:57.155Z,29.71
2022-09-30T13:49:25.061Z,30.50
2022-09-30T13:51:54.905Z,30.60
2022-09-30T13:54:31.925Z,29.65
2022-09-30T13:56:59.719Z,27.77
2022-09-30T14:00:17.379Z,28.22
2022-09-30T14:03:06.356Z,26.68
2022-09-30T14:05:42.852Z,25.66
2022-09-30T14:08:41.003Z,25.20
2022-09-30T14:11:19.598Z,28.00
2022-09-30T14:14:06.539Z,29.78
2022-09-30T14:17:03.522Z,31.48
2022-09-30T14:19:49.450Z,31.59
2022-09-30T14:22:16.518Z,31.48
2022-09-30T14:24:43.231Z,29.68
2022-09-30T14:27:31.584Z,29.72
2022-09-30T14:30:21.760Z,30.26
2022-09-30T14:33:39.467Z,27.84
2022-09-30T14:36:16.080Z,27.75
2022-09-30T14:38:46.571Z,28.07
2022-09-30T14:41:23.966Z,29.35
2022-09-30T14:43:58.133Z,30.88
2022-09-30T14:46:40.660Z,32.14
2022-09-30T14:49:19.713Z,32.81
2022-09-30T14:51:48.496Z,31.84
2022-09-30T14:54:24.168Z,34.18
2022-09-30T14:56:53.295Z,34.17
2022-09-30T14:59:31.974Z,35.30
2022-09-30T15:02:10.004Z,35.77
2022-09-30T15:04:42.489Z,37.79
2022-09-30T15:07:13.608Z,38.41
2022-09-30T15:09:43.606Z,37.20
2022-09-30T15:12:16.662Z,37.61
2022-09-30T15:14:54.762Z,39.43
2022-09-30T15:17:30.225Z,39.74
2022-09-30T15:19:58.849Z,39.66
2022-09-30T15:22:30.147Z,38.95
2022-09-30T15:24:59.870Z,39.28
2022-09-30T15:27:35.308Z,40.34
2022-09-30T15:30:22.453Z,40.57
2022-09-30T15:32:56.854Z,41.02
2022-09-30T15:35:24.101Z,41.38
2022-09-30T15:37:56.427Z,42.11
2022-09-30T15:40:43.223Z,43.10
2022-09-30T15:43:15.509Z,43.78
2022-09-30T15:45:44.208Z,44.17
2022-09-30T15:48:26.187Z,43.91
2022-09-30T15:50:59.464Z,44.42
2022-09-30T15:53:31.476Z,44.63
2022-09-30T15:56:16.882Z,44.96
2022-09-30T15:59:00.252Z,45.67
2022-09-30T16:01:33.194Z,46.01
2022-09-30T16:04:15.222Z,45.68
2022-09-30T16:06:41.982Z,46.72
2022-09-30T16:09:21.717Z,46.99
2022-09-30T16:12:09.893Z,47.30
2022-09-30T16:14:55.686Z,47.86
2022-09-30T16:17:22.118Z,48.08
2022-09-30T16:19:57.889Z,48.10
2022-09-30T16:22:50.399Z,48.20
2022-09-30T16:25:19.431Z,49.13
2022-09-30T16:27:46.209Z,48.46
2022-09-30T16:30:15.492Z,49.06
2022-09-30T16:32:45.182Z,49.78
2022-09-30T16:36:04.578Z,50.31
2022-09-30T16:38:31.020Z,50.64
2022-09-30T16:40:58.074Z,50.84
2022-09-30T16:43:26.953Z,50.98
2022-09-30T16:46:20.367Z,51.16
2022-09-30T16:48:49.874Z,51.66
2022-09-30T16:51:17.459Z,51.65
2022-09-30T16:53:44.134Z,52.09
2022-09-30T16:56:20.752Z,52.00
2022-09-30T16:58:51.679Z,52.24
2022-09-30T17:01:23.236Z,52.24
2022-09-30T17:03:50.589Z,52.65
2022-09-30T17:06:19.600Z,52.94
2022-09-30T17:08:48.806Z,52.44
2022-09-30T17:11:15.250Z,52.48
2022-09-30T17:13:42.755Z,52.20
2022-09-30T17:16:09.355Z,51.89
2022-09-30T17:18:35.932Z,52.03
2022-09-30T17:21:02.521Z,51.96
2022-09-30T17:23:29.040Z,51.90
2022-09-30T17:25:55.586Z,52.47
2022-09-30T17:28:22.265Z,52.67
2022-09-30T17:30:50.337Z,52.67
2022-09-30T17:33:20.106Z,53.19
2022-09-30T17:35:59.272Z,54.61
2022-09-30T17:38:25.954Z,54.37
2022-09-30T17:41:10.962Z,54.65
2022-09-30T17:43:37.378Z,55.04
2022-09-30T17:46:04.084Z,55.48
2022-09-30T17:48:30.998Z,56.75
2022-09-30T17:50:57.591Z,56.50
2022-09-30T17:53:24.032Z,56.95
2022-09-30T17:56:02.608Z,57.31
2022-09-30T17:58:29.270Z,58.55
2022-09-30T18:00:58.726Z,58.22
2022-09-30T18:03:26.289Z,58.79
2022-09-30T18:05:59.587Z,59.22
2022-09-30T18:08:27.495Z,59.13
2022-09-30T18:10:55.341Z,59.67
2022-09-30T18:13:21.786Z,59.69
2022-09-30T18:15:48.216Z,59.59
2022-09-30T18:18:14.700Z,60.13
2022-09-30T18:20:45.552Z,59.87
2022-09-30T18:23:12.420Z,60.34
2022-09-30T18:25:41.147Z,61.29
2022-09-30T18:28:10.647Z,61.51
2022-09-30T18:30:39.080Z,61.62
2022-09-30T18:33:07.197Z,61.45
2022-09-30T18:35:39.108Z,62.12
2022-09-30T18:38:06.717Z,61.56
2022-09-30T18:40:33.757Z,62.08
2022-09-30T18:43:02.750Z,62.64
2022-09-30T18:45:31.700Z,63.56
2022-09-30T18:48:00.375Z,62.87
2022-09-30T18:50:28.755Z,63.30
2022-09-30T18:52:56.362Z,63.06
2022-09-30T18:55:23.617Z,63.52
2022-09-30T18:57:54.093Z,64.20
2022-09-30T19:00:20.755Z,64.73
2022-09-30T19:02:47.397Z,65.65
2022-09-30T19:05:16.618Z,66.12
2022-09-30T19:07:43.323Z,66.03
2022-09-30T19:10:13.044Z,65.97
2022-09-30T19:12:41.445Z,65.82
2022-09-30T19:15:10.782Z,66.37
2022-09-30T19:17:37.628Z,66.25
2022-09-30T19:20:05.985Z,66.22
2022-09-30T19:22:43.160Z,66.76
2022-09-30T19:25:11.676Z,66.91
2022-09-30T19:27:40.786Z,66.90
2022-09-30T19:30:09.990Z,66.39
2022-09-30T19:32:36.771Z,66.07
2022-09-30T19:35:11.987Z,67.43
2022-09-30T19:37:57.075Z,66.65
2022-09-30T19:40:29.388Z,67.19
2022-09-30T19:42:55.863Z,67.28
2022-09-30T19:45:25.870Z,67.67
2022-09-30T19:47:54.413Z,67.12
2022-09-30T19:50:21.047Z,66.77
2022-09-30T19:52:56.161Z,66.78
2022-09-30T19:55:24.135Z,67.83
2022-09-30T19:57:50.572Z,67.73
2022-09-30T20:00:17.237Z,67.04
2022-09-30T20:02:45.679Z,67.22
2022-09-30T20:05:12.529Z,67.78
2022-09-30T20:07:39.567Z,67.79
2022-09-30T20:10:06.498Z,67.65
2022-09-30T20:12:32.923Z,67.84
2022-09-30T20:15:18.059Z,68.50
2022-09-30T20:17:44.468Z,67.64
2022-09-30T20:20:29.835Z,67.92
2022-09-30T20:23:00.125Z,68.15
2022-09-30T20:25:28.474Z,68.79
2022-09-30T20:27:54.942Z,68.27
2022-09-30T20:30:21.954Z,67.94
2022-09-30T20:32:48.390Z,68.59
2022-09-30T20:35:14.928Z,68.87
2022-09-30T20:37:42.665Z,69.04
2022-09-30T20:40:09.836Z,68.52
2022-09-30T20:42:38.179Z,68.25
2022-09-30T20:45:06.555Z,67.84
2022-09-30T20:47:32.990Z,67.94
2022-09-30T20:49:59.541Z,69.24
2022-09-30T20:52:26.143Z,69.88
2022-09-30T20:54:53.042Z,70.27
2022-09-30T20:57:19.597Z,71.62
2022-09-30T20:59:47.324Z,71.05
2022-09-30T21:02:14.440Z,71.64
2022-09-30T21:04:40.957Z,70.87
2022-09-30T21:07:09.455Z,70.36
2022-09-30T21:09:35.994Z,70.36
2022-09-30T21:12:02.464Z,71.28
2022-09-30T21:14:29.028Z,72.28
2022-09-30T21:16:55.563Z,72.03
2022-09-30T21:19:22.103Z,71.29
2022-09-30T21:21:48.583Z,71.46
2022-09-30T21:24:16.336Z,73.31
2022-09-30T21:26:43.140Z,72.91
2022-09-30T21:29:09.585Z,71.88
2022-09-30T21:31:37.765Z,70.88
2022-09-30T21:34:04.506Z,70.73
2022-09-30T21:36:32.105Z,69.35
2022-09-30T21:39:02.462Z,70.40
2022-09-30T21:41:30.042Z,70.82
2022-09-30T21:43:57.172Z,70.99
2022-09-30T21:46:23.894Z,70.25
2022-09-30T21:48:52.872Z,72.68
2022-09-30T21:51:19.307Z,73.81
2022-09-30T21:53:46.751Z,74.45
2022-09-30T21:56:13.267Z,74.23
2022-09-30T21:58:39.807Z,74.89
